Time;durP1;ratioP1;P1;durP2;ratioP2;P2;SDS_P1;SDS_P2;PMS_P1;PMS_P2;Temp;Humidity;BMP_temperature;BMP_pressure;BME280_temperature;BME280_humidity;BME280_pressure;Samples;Min_cycle;Max_cycle;Signal;HPM_P1;HPM_P2
2023/06/15 00:01:19;;;;;;;3.93;3.53;;;;;;;22.16;54.96;97411.03;5067132;28;20206;-26
2023/06/15 00:03:45;;;;;;;4.20;3.80;;;;;;;22.14;54.93;97411.00;5079134;28;20231;-26
2023/06/15 00:06:12;;;;;;;4.93;3.83;;;;;;;22.15;54.81;97409.31;5070517;28;20208;-26
2023/06/15 00:08:40;;;;;;;6.37;3.87;;;;;;;22.15;54.41;97412.75;5057509;28;20204;-26
2023/06/15 00:11:07;;;;;;;3.97;3.67;;;;;;;22.14;54.84;97413.53;5072235;28;20191;-26
2023/06/15 00:13:33;;;;;;;3.90;3.47;;;;;;;22.16;54.91;97411.03;5078901;28;20192;-26
2023/06/15 00:16:00;;;;;;;3.90;3.60;;;;;;;22.16;54.81;97417.03;5078482;28;20424;-26
2023/06/15 00:18:26;;;;;;;4.03;3.63;;;;;;;22.17;54.76;97410.22;5060446;28;20762;-26
2023/06/15 00:20:55;;;;;;;3.90;3.57;;;;;;;22.16;54.81;97414.47;5078869;28;20201;-26
2023/06/15 00:23:26;;;;;;;3.83;3.53;;;;;;;22.16;54.65;97409.34;5078655;28;20606;-26
2023/06/15 00:25:53;;;;;;;3.87;3.57;;;;;;;22.16;54.74;97419.59;5103419;22;20216;-28
2023/06/15 00:29:16;;;;;;;4.07;3.77;;;;;;;22.16;54.88;97421.25;5075112;28;20206;-28
2023/06/15 00:31:42;;;;;;;4.17;3.77;;;;;;;22.16;55.17;97421.25;5095661;28;20220;-28
2023/06/15 00:34:10;;;;;;;5.00;3.60;;;;;;;22.15;54.49;97422.97;5106563;28;20199;-28
2023/06/15 00:36:36;;;;;;;4.87;3.87;;;;;;;22.15;54.57;97422.09;5095787;28;20227;-28
2023/06/15 00:39:03;;;;;;;4.07;3.63;;;;;;;22.14;54.64;97423.78;5090223;28;20661;-28
2023/06/15 00:41:30;;;;;;;3.97;3.60;;;;;;;22.14;54.51;97422.94;5076656;28;20200;-25
2023/06/15 00:43:56;;;;;;;4.03;3.63;;;;;;;22.14;54.35;97416.09;5089980;28;20739;-28
2023/06/15 00:46:23;;;;;;;5.40;3.60;;;;;;;22.14;55.06;97422.94;5106570;28;20215;-28
2023/06/15 00:48:50;;;;;;;4.50;4.10;;;;;;;22.14;54.77;97418.66;5094881;28;20210;-28
2023/06/15 00:51:16;;;;;;;3.80;3.50;;;;;;;22.14;54.88;97421.22;5071344;28;20290;-28
2023/06/15 00:53:43;;;;;;;3.60;3.30;;;;;;;22.14;55.12;97422.94;5076074;28;20243;-28
2023/06/15 00:56:10;;;;;;;3.50;3.23;;;;;;;22.14;55.08;97421.22;5093980;28;20249;-27
2023/06/15 00:58:36;;;;;;;4.37;3.50;;;;;;;22.10;55.19;97411.75;5095519;28;20605;-28
2023/06/15 01:01:03;;;;;;;3.77;3.47;;;;;;;22.14;55.05;97423.78;5087380;28;20199;-28
2023/06/15 01:03:30;;;;;;;4.37;3.73;;;;;;;22.15;54.96;97419.53;5090192;28;20661;-28
2023/06/15 01:05:58;;;;;;;4.07;3.77;;;;;;;22.16;55.01;97422.16;5066446;28;20575;-27
2023/06/15 01:08:25;;;;;;;4.20;3.80;;;;;;;22.15;54.97;97422.09;5076294;28;20203;-28
2023/06/15 01:10:53;;;;;;;4.27;3.77;;;;;;;22.16;54.96;97421.25;5070268;28;20281;-28
2023/06/15 01:13:20;;;;;;;3.73;3.43;;;;;;;22.16;55.01;97424.69;5080680;28;20293;-28
2023/06/15 01:15:47;;;;;;;4.07;3.67;;;;;;;22.15;54.93;97425.53;5100982;28;20656;-27
2023/06/15 01:18:31;;;;;;;4.40;3.40;;;;;;;22.17;54.95;97425.56;5075510;28;20228;-28
2023/06/15 01:21:15;;;;;;;3.60;3.30;;;;;;;22.17;55.00;97420.47;5064561;28;20620;-27
2023/06/15 01:23:49;;;;;;;3.73;3.43;;;;;;;22.17;55.10;97421.31;5082380;28;20200;-28
2023/06/15 01:26:17;;;;;;;4.17;3.43;;;;;;;22.18;55.08;97419.63;5066456;28;20673;-28
2023/06/15 01:28:47;;;;;;;3.60;3.30;;;;;;;22.18;55.06;97422.19;5077618;28;20208;-27
2023/06/15 01:31:14;;;;;;;3.63;3.33;;;;;;;22.14;55.28;97408.44;5075681;28;20642;-28
2023/06/15 01:33:48;;;;;;;3.90;3.60;;;;;;;22.18;55.05;97406.81;5083712;28;20307;-28
2023/06/15 01:36:14;;;;;;;3.73;3.43;;;;;;;22.18;54.95;97412.81;5101097;28;20219;-28
2023/06/15 01:38:41;;;;;;;3.53;3.23;;;;;;;22.18;55.24;97409.38;5068490;28;20246;-28
2023/06/15 01:41:08;;;;;;;4.50;3.50;;;;;;;22.19;55.00;97411.97;5082512;28;20674;-28
2023/06/15 01:43:35;;;;;;;4.70;3.40;;;;;;;22.15;55.08;97407.63;5075533;28;20203;-28
2023/06/15 01:46:02;;;;;;;4.10;3.70;;;;;;;22.19;54.97;97403.44;5073240;28;20303;-27
2023/06/15 01:48:29;;;;;;;3.60;3.30;;;;;;;22.16;54.74;97395.66;5085747;28;20238;-28
2023/06/15 01:50:55;;;;;;;3.30;3.10;;;;;;;22.19;54.79;97393.19;5107385;28;20195;-28
2023/06/15 01:53:22;;;;;;;6.70;3.30;;;;;;;22.18;55.04;97397.47;5064501;28;20218;-28
2023/06/15 01:55:49;;;;;;;3.57;3.27;;;;;;;22.19;54.97;97390.63;5095132;28;20219;-28
2023/06/15 01:58:16;;;;;;;3.80;3.50;;;;;;;22.16;54.72;97396.53;5069932;28;20191;-28
2023/06/15 02:00:43;;;;;;;4.20;3.80;;;;;;;22.17;54.53;97384.63;5091280;28;20200;-28
2023/06/15 02:03:11;;;;;;;4.03;3.63;;;;;;;22.16;54.57;97388.00;5085632;28;20191;-28
2023/06/15 02:05:41;;;;;;;4.00;3.70;;;;;;;22.15;54.42;97387.16;5093472;28;20222;-28
2023/06/15 02:08:11;;;;;;;3.53;3.30;;;;;;;22.17;54.79;97387.19;5091284;28;20192;-28
2023/06/15 02:10:37;;;;;;;3.90;3.60;;;;;;;22.18;54.90;97401.69;5092832;28;20336;-28
2023/06/15 02:13:06;;;;;;;4.00;3.70;;;;;;;22.17;55.08;97399.97;5092706;28;20212;-28
2023/06/15 02:15:33;;;;;;;3.60;3.30;;;;;;;22.16;55.04;97396.53;5089044;28;20215;-28
2023/06/15 02:18:02;;;;;;;3.90;3.60;;;;;;;22.15;55.13;97402.50;5085640;28;20238;-28
2023/06/15 02:20:29;;;;;;;3.70;3.40;;;;;;;22.15;55.13;97404.19;5094824;28;20676;-28
2023/06/15 02:22:59;;;;;;;3.90;3.60;;;;;;;22.14;55.17;97408.44;5101366;28;20666;-28
2023/06/15 02:25:27;;;;;;;3.80;3.50;;;;;;;22.16;55.07;97409.34;5087652;28;20268;-28
2023/06/15 02:27:55;;;;;;;3.50;3.20;;;;;;;22.16;55.07;97409.34;5090821;28;20203;-27
2023/06/15 02:30:24;;;;;;;3.50;3.30;;;;;;;22.16;55.23;97406.78;5088765;28;20684;-28
2023/06/15 02:32:52;;;;;;;3.60;3.30;;;;;;;22.16;55.20;97409.34;5087956;28;20219;-28
2023/06/15 02:35:19;;;;;;;3.40;3.20;;;;;;;22.16;55.13;97404.22;5092313;28;20215;-28
2023/06/15 02:37:46;;;;;;;3.20;3.00;;;;;;;22.17;55.04;97405.09;5092300;28;20206;-28
2023/06/15 02:40:13;;;;;;;3.50;3.20;;;;;;;22.13;55.13;97409.25;5092616;28;20199;-26
2023/06/15 02:42:39;;;;;;;3.90;3.60;;;;;;;22.17;54.87;97408.50;5073631;28;20198;-28
2023/06/15 02:45:07;;;;;;;3.70;3.40;;;;;;;22.19;55.17;97413.66;5090897;28;20624;-28
2023/06/15 02:47:35;;;;;;;3.30;3.10;;;;;;;22.19;55.17;97413.66;5087549;28;20196;-28
2023/06/15 02:50:02;;;;;;;3.83;3.47;;;;;;;22.19;55.10;97418.78;5079169;28;20670;-27
2023/06/15 02:52:32;;;;;;;3.57;3.27;;;;;;;22.19;55.17;97413.66;5090756;28;20227;-28
2023/06/15 02:54:59;;;;;;;3.73;3.43;;;;;;;22.18;55.27;97417.94;5087983;28;20245;-28
2023/06/15 02:57:26;;;;;;;3.50;3.23;;;;;;;22.19;55.17;97416.22;5092763;28;20199;-27
2023/06/15 02:59:53;;;;;;;3.40;3.20;;;;;;;22.19;55.35;97421.34;5091231;28;20253;-28
2023/06/15 03:02:22;;;;;;;3.77;3.47;;;;;;;22.19;55.41;97416.22;5086759;28;20192;-28
2023/06/15 03:04:50;;;;;;;3.53;3.30;;;;;;;22.16;55.06;97414.47;5097792;28;20255;-28
2023/06/15 03:07:20;;;;;;;3.60;3.40;;;;;;;22.19;55.26;97414.53;5087745;28;20204;-28
2023/06/15 03:09:47;;;;;;;3.53;3.23;;;;;;;22.19;55.32;97419.66;5095881;28;20204;-28
2023/06/15 03:12:14;;;;;;;3.90;3.33;;;;;;;22.20;55.10;97429.06;5099546;28;20196;-28
2023/06/15 03:14:44;;;;;;;3.70;3.40;;;;;;;22.20;55.39;97423.09;5092383;28;20218;-28
2023/06/15 03:17:12;;;;;;;4.00;3.70;;;;;;;22.20;55.36;97430.78;5081903;28;20287;-27
2023/06/15 03:19:40;;;;;;;3.33;3.10;;;;;;;22.20;55.32;97425.66;5083544;28;20685;-28
2023/06/15 03:22:09;;;;;;;3.63;3.33;;;;;;;22.19;55.19;97432.47;5093433;28;20607;-28
2023/06/15 03:24:36;;;;;;;3.87;3.57;;;;;;;22.19;55.14;97434.13;5068510;28;20217;-28
2023/06/15 03:27:04;;;;;;;3.53;3.30;;;;;;;22.19;55.00;97440.13;5099923;28;20200;-28
2023/06/15 03:29:36;;;;;;;3.87;3.57;;;;;;;22.18;54.91;97434.97;5070049;28;20202;-27
2023/06/15 03:32:05;;;;;;;3.67;3.37;;;;;;;22.17;54.91;97433.25;5086622;28;20199;-28
2023/06/15 03:34:31;;;;;;;3.70;3.40;;;;;;;22.17;54.88;97436.66;5080586;28;20212;-28
2023/06/15 03:36:58;;;;;;;3.60;3.30;;;;;;;22.17;55.09;97440.94;5090871;28;20249;-28
2023/06/15 03:39:25;;;;;;;3.53;3.23;;;;;;;22.17;55.31;97440.94;5091466;28;20203;-28
2023/06/15 03:41:51;;;;;;;3.77;3.47;;;;;;;22.17;55.34;97446.06;5085663;28;20197;-28
2023/06/15 03:44:18;;;;;;;3.80;3.50;;;;;;;22.16;55.39;97445.19;5083984;28;20362;-28
2023/06/15 03:46:45;;;;;;;3.30;3.10;;;;;;;22.16;55.21;97442.63;5088430;28;20200;-28
2023/06/15 03:49:13;;;;;;;4.00;3.67;;;;;;;22.16;55.33;97446.84;5093040;28;20196;-27
2023/06/15 03:51:39;;;;;;;3.57;3.27;;;;;;;22.16;55.36;97446.84;5090181;28;20203;-28
2023/06/15 03:54:06;;;;;;;3.60;3.30;;;;;;;22.17;55.38;97458.84;5092869;28;20216;-28
2023/06/15 03:56:33;;;;;;;3.73;3.43;;;;;;;22.16;55.18;97459.66;5091821;28;20211;-28
2023/06/15 03:58:59;;;;;;;3.63;3.33;;;;;;;22.17;55.29;97469.09;5091147;28;20199;-28
2023/06/15 04:01:26;;;;;;;3.50;3.20;;;;;;;22.16;55.20;97460.53;5089634;28;20245;-28
2023/06/15 04:03:53;;;;;;;3.60;3.30;;;;;;;22.17;55.25;97463.97;5088289;28;21020;-28
2023/06/15 04:06:21;;;;;;;4.10;3.70;;;;;;;22.16;55.41;97463.09;5087239;28;20216;-28
2023/06/15 04:08:48;;;;;;;3.80;3.50;;;;;;;22.17;55.38;97467.38;5091241;28;20617;-28
2023/06/15 04:11:15;;;;;;;3.50;3.20;;;;;;;22.18;55.20;97470.81;5091037;28;20645;-27
2023/06/15 04:13:41;;;;;;;3.20;3.00;;;;;;;22.19;55.16;97469.97;5090176;28;20223;-27
2023/06/15 04:16:08;;;;;;;4.07;3.77;;;;;;;22.19;55.22;97475.97;5084641;28;20694;-27
2023/06/15 04:18:35;;;;;;;3.73;3.43;;;;;;;22.19;55.15;97487.91;5097217;28;20199;-28
2023/06/15 04:21:02;;;;;;;3.90;3.20;;;;;;;22.20;55.23;97487.94;5094055;28;20616;-26
2023/06/15 04:23:29;;;;;;;3.93;3.63;;;;;;;22.19;55.20;97488.78;5073000;28;20678;-28
2023/06/15 04:25:58;;;;;;;3.80;3.50;;;;;;;22.20;55.20;97487.09;5090994;28;20227;-28
2023/06/15 04:28:24;;;;;;;3.53;3.23;;;;;;;22.21;55.11;97491.38;5094457;28;20575;-28
2023/06/15 04:30:54;;;;;;;3.33;3.10;;;;;;;22.21;55.15;97491.38;5091842;28;20649;-28
2023/06/15 04:33:22;;;;;;;3.83;3.53;;;;;;;22.21;55.30;97497.38;5091323;28;20211;-28
2023/06/15 04:35:48;;;;;;;3.53;3.20;;;;;;;22.19;55.35;97491.34;5085805;28;20797;-28
2023/06/15 04:38:15;;;;;;;3.43;3.13;;;;;;;22.22;54.99;97501.66;5086698;28;20196;-28
2023/06/15 04:40:42;;;;;;;3.93;3.63;;;;;;;22.21;54.86;97492.25;5096245;28;20665;-28
2023/06/15 04:43:09;;;;;;;3.77;3.43;;;;;;;22.23;55.10;97498.25;5092505;28;20249;-28
2023/06/15 04:45:35;;;;;;;5.63;4.17;;;;;;;22.22;53.52;97496.53;5096809;28;20593;-28
2023/06/15 04:48:02;;;;;;;5.10;4.60;;;;;;;22.21;52.28;97502.50;5098519;28;20236;-28
2023/06/15 04:50:32;;;;;;;5.27;4.77;;;;;;;22.18;51.45;97491.28;5087784;28;20744;-28
2023/06/15 04:52:59;;;;;;;5.30;4.80;;;;;;;22.17;50.36;97504.94;5074234;28;20759;-28
2023/06/15 04:55:25;;;;;;;6.77;5.53;;;;;;;22.14;50.10;97500.56;5099190;28;20272;-27
2023/06/15 04:57:52;;;;;;;6.03;5.47;;;;;;;22.14;50.40;97500.56;5095056;28;20199;-27
2023/06/15 05:00:19;;;;;;;6.93;5.13;;;;;;;22.13;50.75;97500.53;5096643;28;20253;-27
2023/06/15 05:02:46;;;;;;;8.00;6.00;;;;;;;22.11;50.90;97510.72;5094408;28;20204;-28
2023/06/15 05:05:13;;;;;;;6.50;5.77;;;;;;;22.11;50.95;97504.78;5096519;28;20268;-28
2023/06/15 05:07:40;;;;;;;6.27;5.13;;;;;;;22.10;50.82;97508.13;5075813;28;20670;-27
2023/06/15 05:10:07;;;;;;;6.10;5.57;;;;;;;22.09;51.15;97512.41;5090903;28;20191;-28
2023/06/15 05:12:34;;;;;;;6.23;5.60;;;;;;;22.06;51.00;97512.31;5099090;28;20245;-28
2023/06/15 05:15:00;;;;;;;8.93;5.40;;;;;;;;;;5097214;28;20238;-28
2023/06/15 05:17:27;;;;;;;12.93;5.33;;;;;;;22.05;50.66;97509.72;5100111;28;20225;-28
2023/06/15 05:19:53;;;;;;;6.53;5.83;;;;;;;22.04;50.63;97513.97;5093831;28;20204;-28
2023/06/15 05:22:20;;;;;;;9.37;5.90;;;;;;;22.03;50.31;97513.91;5093900;28;20658;-28
2023/06/15 05:24:47;;;;;;;7.30;5.90;;;;;;;22.02;50.01;97522.44;5090678;28;20238;-27
2023/06/15 05:27:13;;;;;;;10.10;6.10;;;;;;;22.00;50.73;97524.97;5094127;28;20192;-28
2023/06/15 05:29:40;;;;;;;8.20;6.30;;;;;;;21.99;50.42;97517.22;5094205;28;20671;-28
2023/06/15 05:32:07;;;;;;;7.20;5.70;;;;;;;21.99;50.68;97524.91;5088498;28;20200;-28
2023/06/15 05:34:34;;;;;;;6.67;5.70;;;;;;;21.99;50.99;97530.03;5098338;28;20219;-28
2023/06/15 05:37:01;;;;;;;9.23;6.27;;;;;;;21.99;51.27;97530.03;5090597;28;20658;-28
2023/06/15 05:39:28;;;;;;;6.47;5.80;;;;;;;21.98;51.26;97531.72;5091456;28;20192;-28
2023/06/15 05:41:55;;;;;;;6.37;5.50;;;;;;;21.99;51.09;97535.16;5092358;28;20199;-28
2023/06/15 05:44:21;;;;;;;6.10;5.50;;;;;;;21.99;50.61;97537.72;5086932;28;20265;-28
2023/06/15 05:46:48;;;;;;;8.17;6.20;;;;;;;21.97;50.46;97535.09;5089505;28;20662;-28
2023/06/15 05:49:15;;;;;;;6.70;6.07;;;;;;;21.98;50.20;97543.63;5087983;28;20199;-28
2023/06/15 05:51:41;;;;;;;8.17;5.40;;;;;;;21.98;50.29;97539.38;5097356;28;20195;-28
2023/06/15 05:54:08;;;;;;;9.27;5.93;;;;;;;21.98;50.57;97544.50;5087676;28;20219;-27
2023/06/15 05:56:35;;;;;;;8.03;5.53;;;;;;;21.99;51.45;97546.22;5093208;28;20739;-28
2023/06/15 05:59:01;;;;;;;6.10;5.50;;;;;;;21.99;51.93;97543.66;5087720;28;20241;-28
2023/06/15 06:01:28;;;;;;;5.57;4.90;;;;;;;22.01;51.96;97556.50;5084217;28;20629;-28
2023/06/15 06:03:54;;;;;;;7.20;5.50;;;;;;;22.01;52.33;97553.94;5096966;28;20199;-28
2023/06/15 06:06:21;;;;;;;5.70;5.20;;;;;;;22.02;52.54;97551.44;5092625;28;20265;-28
2023/06/15 06:08:47;;;;;;;5.97;5.37;;;;;;;22.00;52.52;97548.00;5089278;28;20231;-28
2023/06/15 06:11:14;;;;;;;5.80;5.30;;;;;;;22.01;52.69;97552.28;5091054;28;20195;-28
2023/06/15 06:13:41;;;;;;;5.67;5.13;;;;;;;22.02;52.60;97558.25;5093038;28;20219;-28
2023/06/15 06:16:07;;;;;;;5.47;4.97;;;;;;;22.03;52.45;97560.00;5092911;28;20575;-28
2023/06/15 06:18:34;;;;;;;7.00;5.17;;;;;;;22.02;52.34;97564.22;5086688;28;20195;-28
2023/06/15 06:21:01;;;;;;;6.03;5.13;;;;;;;22.03;52.58;97557.44;5086399;28;20204;-27
2023/06/15 06:23:27;;;;;;;6.60;5.07;;;;;;;22.03;52.69;97554.88;5103442;28;20712;-28
2023/06/15 06:25:54;;;;;;;7.00;5.00;;;;;;;22.03;52.13;97554.88;5104464;22;20220;-28
2023/06/15 06:28:20;;;;;;;5.37;4.87;;;;;;;22.03;51.83;97563.44;5042285;28;20271;-26
2023/06/15 06:30:47;;;;;;;5.43;4.93;;;;;;;22.02;52.48;97559.09;5071389;28;20273;-26
2023/06/15 06:33:13;;;;;;;5.73;5.10;;;;;;;22.05;52.71;97558.34;5071111;28;20224;-26
2023/06/15 06:35:41;;;;;;;5.00;4.60;;;;;;;22.04;52.94;97561.72;5063306;28;20227;-26
2023/06/15 06:38:07;;;;;;;4.73;4.33;;;;;;;22.06;53.07;97565.19;5057980;28;20205;-26
2023/06/15 06:40:34;;;;;;;4.87;4.47;;;;;;;22.05;53.17;97553.22;5057397;28;20251;-26
2023/06/15 06:43:01;;;;;;;4.97;4.53;;;;;;;22.06;53.26;97562.63;5060140;28;20204;-32
2023/06/15 06:45:27;;;;;;;5.00;4.60;;;;;;;22.06;53.20;97563.50;5055112;28;20225;-26
2023/06/15 06:47:56;;;;;;;5.67;4.70;;;;;;;22.07;53.46;97564.34;5057357;28;20205;-26
2023/06/15 06:50:23;;;;;;;4.47;4.07;;;;;;;22.08;53.16;97561.00;5054248;28;20242;-26
2023/06/15 06:52:50;;;;;;;5.23;4.60;;;;;;;22.09;53.28;97565.28;5055127;28;20729;-26
2023/06/15 06:55:16;;;;;;;5.00;4.60;;;;;;;22.09;53.53;97561.03;5052145;28;20221;-26
2023/06/15 06:57:43;;;;;;;5.10;4.60;;;;;;;22.10;53.24;97567.00;5050609;28;20688;-26
2023/06/15 07:00:10;;;;;;;5.53;4.97;;;;;;;22.09;53.34;97566.16;5049928;28;20647;-26
2023/06/15 07:02:37;;;;;;;5.80;4.33;;;;;;;22.09;53.23;97571.28;5052538;28;20207;-26
2023/06/15 07:05:04;;;;;;;5.30;4.73;;;;;;;22.08;53.26;97572.06;5056501;28;20212;-26
2023/06/15 07:07:31;;;;;;;7.53;4.77;;;;;;;22.09;53.30;97567.84;5056876;28;20200;-26
2023/06/15 07:09:57;;;;;;;5.30;4.80;;;;;;;22.09;53.33;97561.03;5046202;28;20541;-26
2023/06/15 07:12:24;;;;;;;5.13;4.63;;;;;;;22.10;53.27;97567.00;5052898;28;20204;-31
2023/06/15 07:14:51;;;;;;;5.03;4.53;;;;;;;22.09;53.28;97558.47;5041098;28;20233;-26
2023/06/15 07:17:17;;;;;;;5.27;4.70;;;;;;;22.09;53.39;97566.16;5046954;28;20249;-26
2023/06/15 07:19:45;;;;;;;4.80;4.23;;;;;;;22.10;53.31;97570.44;5023974;28;20640;-26
2023/06/15 07:22:12;;;;;;;5.63;4.63;;;;;;;22.10;53.38;97567.88;5043963;28;20209;-26
2023/06/15 07:24:38;;;;;;;4.47;4.07;;;;;;;22.11;53.40;97564.47;5044923;28;20205;-26
2023/06/15 07:27:05;;;;;;;5.43;4.50;;;;;;;22.14;53.91;97563.72;5036631;28;20225;-26
2023/06/15 07:29:32;;;;;;;5.10;4.40;;;;;;;22.15;53.45;97561.19;5046710;28;20201;-26
2023/06/15 07:31:59;;;;;;;4.70;4.20;;;;;;;22.15;52.60;97565.44;5042523;28;20205;-26
2023/06/15 07:34:26;;;;;;;5.13;4.63;;;;;;;22.16;52.83;97562.06;5049348;28;20212;-28
2023/06/15 07:36:53;;;;;;;5.30;4.50;;;;;;;22.17;53.15;97551.00;5034809;28;20461;-26
2023/06/15 07:39:19;;;;;;;4.93;4.53;;;;;;;22.18;53.12;97560.41;5042300;28;20218;-26
2023/06/15 07:41:46;;;;;;;5.07;4.43;;;;;;;22.19;53.28;97551.91;5043818;28;20248;-26
2023/06/15 07:44:14;;;;;;;4.70;4.30;;;;;;;22.19;53.39;97557.88;5036474;28;20205;-26
2023/06/15 07:46:41;;;;;;;5.77;4.80;;;;;;;22.19;53.31;97560.44;5044682;28;20737;-26
2023/06/15 07:49:07;;;;;;;5.07;4.50;;;;;;;22.20;53.30;97553.66;5051892;28;20197;-26
2023/06/15 07:51:35;;;;;;;4.90;4.50;;;;;;;22.21;53.33;97551.13;5054001;28;20243;-26
2023/06/15 07:54:13;;;;;;;4.60;4.20;;;;;;;22.22;53.25;97557.09;5047098;28;20224;-26
2023/06/15 07:56:40;;;;;;;4.70;4.27;;;;;;;22.21;53.37;97551.13;5050025;28;20220;-26
2023/06/15 07:59:07;;;;;;;4.90;4.50;;;;;;;22.21;53.28;97555.38;5053709;28;20729;-26
2023/06/15 08:01:33;;;;;;;4.37;3.97;;;;;;;22.20;53.32;97554.50;5059578;28;20573;-27
2023/06/15 08:04:00;;;;;;;5.07;4.57;;;;;;;22.19;53.40;97554.44;5042270;28;20259;-26
2023/06/15 08:06:26;;;;;;;4.97;4.57;;;;;;;22.17;53.42;97551.84;5044264;28;20591;-30
2023/06/15 08:08:53;;;;;;;5.13;4.50;;;;;;;22.18;53.68;97551.03;5053640;28;20206;-27
2023/06/15 08:11:20;;;;;;;4.80;4.37;;;;;;;22.19;53.72;97546.78;5049887;28;20672;-26
2023/06/15 08:13:46;;;;;;;5.27;4.20;;;;;;;22.18;53.72;97548.50;5056868;28;20270;-26
2023/06/15 08:16:13;;;;;;;4.50;4.10;;;;;;;22.20;53.59;97551.09;5037750;28;20229;-26
2023/06/15 08:18:40;;;;;;;4.50;4.10;;;;;;;22.19;53.76;97549.34;5061390;28;20667;-26
2023/06/15 08:21:06;;;;;;;4.20;3.90;;;;;;;22.20;53.86;97543.41;5046622;28;20210;-26
2023/06/15 08:23:33;;;;;;;4.50;4.10;;;;;;;22.20;53.81;97543.41;5054892;28;20198;-27
2023/06/15 08:25:59;;;;;;;5.73;4.57;;;;;;;22.20;53.45;97535.72;5064254;28;20645;-35
2023/06/15 08:28:26;;;;;;;4.03;3.73;;;;;;;22.20;53.71;97546.81;5045737;28;20205;-26
2023/06/15 08:30:53;;;;;;;4.87;4.37;;;;;;;22.21;53.78;97543.44;5067953;28;20196;-26
2023/06/15 08:33:19;;;;;;;4.73;4.23;;;;;;;22.20;53.79;97557.06;5059199;28;20205;-26
2023/06/15 08:35:46;;;;;;;4.47;4.07;;;;;;;22.19;53.76;97547.66;5042854;28;20232;-27
2023/06/15 08:38:13;;;;;;;4.67;4.27;;;;;;;22.19;53.87;97541.66;5042280;28;20568;-26
2023/06/15 08:40:40;;;;;;;4.30;3.90;;;;;;;22.18;53.77;97538.25;5039486;28;20205;-26
2023/06/15 08:43:07;;;;;;;4.67;4.27;;;;;;;22.19;53.99;97546.78;5054972;28;20196;-27
2023/06/15 08:45:40;;;;;;;3.83;3.53;;;;;;;22.18;54.12;97543.38;5029823;28;20213;-26
2023/06/15 08:48:08;;;;;;;4.00;3.67;;;;;;;22.19;53.96;97546.78;5047933;28;20193;-26
2023/06/15 08:50:35;;;;;;;4.87;4.37;;;;;;;22.19;54.13;97541.66;5050134;28;20691;-26
2023/06/15 08:53:02;;;;;;;4.20;3.90;;;;;;;22.18;54.04;97540.81;5035059;28;20267;-26
2023/06/15 08:55:28;;;;;;;4.20;3.90;;;;;;;22.18;53.99;97537.38;5024610;28;20720;-26
2023/06/15 08:57:55;;;;;;;4.20;3.90;;;;;;;22.19;54.26;97542.53;5048346;28;20197;-26
2023/06/15 09:00:22;;;;;;;4.23;3.83;;;;;;;22.18;54.22;97545.94;5054971;28;20216;-26
2023/06/15 09:02:50;;;;;;;4.10;3.80;;;;;;;22.18;54.27;97542.50;5051831;28;20288;-26
2023/06/15 09:05:17;;;;;;;4.13;3.83;;;;;;;22.19;54.08;97549.34;5029762;28;20764;-26
2023/06/15 09:07:44;;;;;;;4.17;3.87;;;;;;;22.19;54.29;97539.09;5036035;28;20201;-26
2023/06/15 09:10:17;;;;;;;4.57;4.17;;;;;;;22.18;54.23;97543.38;5056335;28;20193;-26
2023/06/15 09:12:48;;;;;;;4.27;3.87;;;;;;;22.19;54.33;97539.09;5054757;28;20200;-29
2023/06/15 09:15:19;;;;;;;4.43;4.03;;;;;;;22.20;54.24;97531.44;5052793;28;20255;-26
2023/06/15 09:17:53;;;;;;;4.40;4.00;;;;;;;22.21;54.33;97542.56;5048310;28;20208;-26
2023/06/15 09:20:20;;;;;;;4.00;3.60;;;;;;;22.19;54.11;97539.97;5065595;28;20208;-26
2023/06/15 09:22:47;;;;;;;4.07;3.67;;;;;;;22.19;54.28;97537.41;5056526;28;20284;-26
2023/06/15 09:25:17;;;;;;;4.20;3.87;;;;;;;22.18;54.31;97537.38;5061185;28;20316;-26
2023/06/15 11:01:13;;;;;;;3.63;3.33;;;;;;;22.12;54.96;97507.38;5030274;28;20269;-26
2023/06/15 11:03:41;;;;;;;3.93;3.43;;;;;;;22.14;54.87;97502.28;5039123;28;20201;-26
2023/06/15 11:06:15;;;;;;;3.57;3.27;;;;;;;22.14;55.04;97504.84;5045107;28;20617;-26
2023/06/15 11:08:52;;;;;;;3.63;3.33;;;;;;;22.14;55.00;97502.28;5000419;28;20242;-35
2023/06/15 11:11:30;;;;;;;4.00;3.70;;;;;;;22.13;54.94;97510.78;5003809;28;20211;-26
2023/06/15 11:14:19;;;;;;;3.90;3.60;;;;;;;22.14;54.94;97510.81;4962592;28;20297;-26
2023/06/15 11:16:46;;;;;;;3.30;3.00;;;;;;;22.14;54.89;97503.13;4882974;29;20320;-26
2023/06/15 11:19:13;;;;;;;3.33;3.13;;;;;;;22.14;55.02;97504.84;4830857;29;1312596;-26
2023/06/15 11:21:40;;;;;;;3.23;2.93;;;;;;;22.13;54.93;97503.97;4914250;29;20210;-26
2023/06/15 11:24:07;;;;;;;3.73;3.40;;;;;;;22.13;55.16;97496.28;4915234;29;20300;-26
2023/06/15 11:26:38;;;;;;;3.83;3.53;;;;;;;22.13;55.05;97501.41;4911901;29;20643;-27
2023/06/15 11:29:07;;;;;;;3.37;3.07;;;;;;;22.12;54.85;97506.50;4898514;29;20245;-26
2023/06/15 11:31:34;;;;;;;3.40;3.10;;;;;;;22.15;55.11;97498.88;4897250;29;20206;-26
2023/06/15 11:34:01;;;;;;;3.50;3.03;;;;;;;22.15;55.02;97509.13;4914967;29;20209;-26
2023/06/15 11:36:28;;;;;;;3.30;3.10;;;;;;;22.16;54.94;97508.28;4903729;29;20230;-29
2023/06/15 11:38:55;;;;;;;3.60;3.30;;;;;;;22.16;55.06;97501.50;4912455;29;20669;-26
2023/06/15 11:41:21;;;;;;;3.70;3.40;;;;;;;22.16;54.99;97501.50;4918424;29;20490;-26
2023/06/15 11:43:48;;;;;;;4.00;3.47;;;;;;;22.18;54.90;97504.09;4900724;29;20206;-30
2023/06/15 11:46:17;;;;;;;3.60;3.30;;;;;;;22.18;54.90;97496.41;4918686;29;20264;-26
2023/06/15 11:48:44;;;;;;;3.30;3.10;;;;;;;22.18;54.90;97492.16;4916520;29;20217;-26
2023/06/15 11:51:11;;;;;;;3.60;3.30;;;;;;;22.19;54.84;97499.00;4909438;29;20203;-28
2023/06/15 11:53:39;;;;;;;3.57;3.27;;;;;;;22.20;54.86;97492.22;4910049;29;20699;-26
2023/06/15 11:56:09;;;;;;;3.60;3.30;;;;;;;22.20;54.86;97489.66;4918467;29;20312;-26
2023/06/15 11:58:35;;;;;;;3.60;3.40;;;;;;;22.21;54.91;97483.69;4917977;29;20670;-26
2023/06/15 12:01:02;;;;;;;3.70;3.40;;;;;;;22.21;54.94;97487.13;4919160;29;20240;-26
2023/06/15 12:03:30;;;;;;;3.83;3.53;;;;;;;22.21;54.95;97478.56;4914553;29;20213;-26
2023/06/15 12:05:57;;;;;;;3.67;3.20;;;;;;;22.21;54.82;97476.88;4918138;29;20235;-26
2023/06/15 12:08:25;;;;;;;3.37;3.13;;;;;;;22.21;54.80;97482.00;4914189;29;20261;-26
2023/06/15 12:10:52;;;;;;;3.37;3.17;;;;;;;22.19;55.01;97470.84;4918211;29;20205;-26
2023/06/15 12:13:19;;;;;;;3.30;3.10;;;;;;;22.21;54.84;97474.34;4901722;29;20281;-31
2023/06/15 12:15:46;;;;;;;3.70;3.40;;;;;;;22.21;54.96;97476.88;4917736;29;20316;-29
2023/06/15 12:18:13;;;;;;;3.13;2.93;;;;;;;22.21;54.86;97476.88;4900028;29;20597;-26
2023/06/15 12:20:39;;;;;;;3.20;3.00;;;;;;;22.21;54.96;97468.34;4919019;29;20596;-30
2023/06/15 12:23:06;;;;;;;5.63;3.30;;;;;;;22.21;54.97;97468.34;4918308;29;20241;-26
2023/06/15 12:25:45;;;;;;;3.33;3.13;;;;;;;22.21;54.83;97470.91;4938672;23;20248;-28
2023/06/15 12:28:16;;;;;;;3.33;3.10;;;;;;;22.22;55.07;97470.06;4956631;28;20305;-28
2023/06/15 12:30:44;;;;;;;3.20;3.00;;;;;;;22.21;54.83;97474.34;4947876;29;20291;-29
2023/06/15 12:33:38;;;;;;;3.27;3.07;;;;;;;22.22;54.94;97465.81;4951598;29;20558;-28
2023/06/15 12:36:12;;;;;;;3.27;2.97;;;;;;;22.18;54.93;97453.78;4961556;28;20232;-28
2023/06/15 12:38:39;;;;;;;3.17;2.97;;;;;;;22.19;54.81;97452.94;4969835;28;20266;-33
2023/06/15 12:41:12;;;;;;;3.20;3.00;;;;;;;22.22;54.85;97457.25;4983644;28;20200;-28
2023/06/15 12:43:39;;;;;;;3.10;2.90;;;;;;;22.22;54.86;97454.69;4968758;28;20218;-28
2023/06/15 12:46:06;;;;;;;3.10;2.90;;;;;;;22.21;54.97;97446.19;4964366;28;20304;-28
2023/06/15 12:48:33;;;;;;;3.00;2.80;;;;;;;22.21;54.95;97440.19;4974326;28;20215;-29
2023/06/15 12:50:59;;;;;;;3.43;3.17;;;;;;;22.24;55.06;97445.38;4971876;28;20203;-28
2023/06/15 12:53:26;;;;;;;3.10;2.90;;;;;;;22.24;54.83;97453.06;4980492;28;20204;-29
2023/06/15 12:55:52;;;;;;;3.43;3.23;;;;;;;22.24;54.93;97440.25;4969592;28;20251;-28
2023/06/15 12:58:19;;;;;;;3.30;3.00;;;;;;;22.26;54.79;97446.28;4975040;28;20667;-28
2023/06/15 13:00:46;;;;;;;3.80;3.50;;;;;;;22.26;54.81;97438.59;4973712;28;20611;-28
2023/06/15 13:03:13;;;;;;;3.00;2.80;;;;;;;22.25;55.01;97442.84;4966415;28;20247;-28
2023/06/15 13:05:43;;;;;;;3.40;3.10;;;;;;;22.25;54.88;97445.41;4983222;28;20230;-28
2023/06/15 13:08:09;;;;;;;4.33;3.20;;;;;;;22.26;55.08;97442.00;4966208;28;20621;-28
2023/06/15 13:10:36;;;;;;;3.17;2.87;;;;;;;22.20;55.06;97425.66;4970027;28;20205;-28